sensor_id;sensor_type;location;lat;lon;timestamp;pressure;altitude;pressure_sealevel;temperature;humidity
62800;BME280;48842;51.046;13.796;2023-02-04T00:00:11;100724.44;;;6.25;75.65
62800;BME280;48842;51.046;13.796;2023-02-04T00:02:38;100732.88;;;6.17;75.76
62800;BME280;48842;51.046;13.796;2023-02-04T00:05:04;100732.66;;;6.09;75.22
62800;BME280;48842;51.046;13.796;2023-02-04T00:07:29;100717.56;;;5.97;74.82
62800;BME280;48842;51.046;13.796;2023-02-04T00:09:54;100736.59;;;5.96;74.89
62800;BME280;48842;51.046;13.796;2023-02-04T00:12:19;100729.56;;;5.93;74.54
62800;BME280;48842;51.046;13.796;2023-02-04T00:14:44;100742.41;;;5.87;74.05
62800;BME280;48842;51.046;13.796;2023-02-04T00:17:10;100755.28;;;5.83;73.67
62800;BME280;48842;51.046;13.796;2023-02-04T00:19:37;100765.75;;;5.86;73.12
62800;BME280;48842;51.046;13.796;2023-02-04T00:22:03;100768.16;;;5.80;71.65
62800;BME280;48842;51.046;13.796;2023-02-04T00:24:28;100793.22;;;5.77;70.69
62800;BME280;48842;51.046;13.796;2023-02-04T00:26:54;100795.00;;;5.79;70.43
62800;BME280;48842;51.046;13.796;2023-02-04T00:29:20;100804.44;;;5.76;69.95
62800;BME280;48842;51.046;13.796;2023-02-04T00:31:45;100813.97;;;5.76;69.99
62800;BME280;48842;51.046;13.796;2023-02-04T00:34:10;100835.69;;;5.78;69.67
62800;BME280;48842;51.046;13.796;2023-02-04T00:36:35;100841.47;;;5.69;68.54
62800;BME280;48842;51.046;13.796;2023-02-04T00:39:01;100845.50;;;5.59;67.90
62800;BME280;48842;51.046;13.796;2023-02-04T00:41:26;100856.78;;;5.60;68.01
62800;BME280;48842;51.046;13.796;2023-02-04T00:43:51;100855.09;;;5.62;68.63
62800;BME280;48842;51.046;13.796;2023-02-04T00:46:16;100847.25;;;5.60;68.33
62800;BME280;48842;51.046;13.796;2023-02-04T00:48:42;100889.34;;;5.50;67.69
62800;BME280;48842;51.046;13.796;2023-02-04T00:51:07;100899.00;;;5.27;66.83
62800;BME280;48842;51.046;13.796;2023-02-04T00:53:32;100936.13;;;5.24;66.69
62800;BME280;48842;51.046;13.796;2023-02-04T00:55:57;100922.53;;;5.07;66.34
62800;BME280;48842;51.046;13.796;2023-02-04T00:58:23;100929.59;;;5.12;66.71
62800;BME280;48842;51.046;13.796;2023-02-04T01:00:48;100946.00;;;5.11;66.78
62800;BME280;48842;51.046;13.796;2023-02-04T01:03:13;100959.94;;;5.13;66.92
62800;BME280;48842;51.046;13.796;2023-02-04T01:05:38;100959.09;;;5.14;66.89
62800;BME280;48842;51.046;13.796;2023-02-04T01:08:04;100967.13;;;5.20;66.89
62800;BME280;48842;51.046;13.796;2023-02-04T01:10:29;100984.50;;;5.22;66.70
62800;BME280;48842;51.046;13.796;2023-02-04T01:12:54;100987.16;;;5.24;66.89
62800;BME280;48842;51.046;13.796;2023-02-04T01:15:19;100988.28;;;5.31;66.69
62800;BME280;48842;51.046;13.796;2023-02-04T01:17:46;101004.63;;;5.28;66.53
62800;BME280;48842;51.046;13.796;2023-02-04T01:20:11;101007.00;;;5.22;66.41
62800;BME280;48842;51.046;13.796;2023-02-04T01:22:37;101009.88;;;5.30;66.99
62800;BME280;48842;51.046;13.796;2023-02-04T01:25:02;101022.09;;;5.32;66.46
62800;BME280;48842;51.046;13.796;2023-02-04T01:27:27;101027.25;;;5.08;66.73
62800;BME280;48842;51.046;13.796;2023-02-04T01:29:53;101037.00;;;5.14;67.32
62800;BME280;48842;51.046;13.796;2023-02-04T01:32:18;101043.03;;;5.13;67.45
62800;BME280;48842;51.046;13.796;2023-02-04T01:34:43;101054.28;;;5.13;68.09
62800;BME280;48842;51.046;13.796;2023-02-04T01:37:08;101065.66;;;5.17;67.87
62800;BME280;48842;51.046;13.796;2023-02-04T01:39:34;101070.69;;;5.12;68.25
62800;BME280;48842;51.046;13.796;2023-02-04T01:42:00;101072.13;;;5.04;67.97
62800;BME280;48842;51.046;13.796;2023-02-04T01:44:27;101076.31;;;5.00;68.53
62800;BME280;48842;51.046;13.796;2023-02-04T01:46:52;101090.09;;;4.99;68.87
62800;BME280;48842;51.046;13.796;2023-02-04T01:49:18;101128.16;;;4.99;69.30
62800;BME280;48842;51.046;13.796;2023-02-04T01:51:43;101110.88;;;4.99;69.17
62800;BME280;48842;51.046;13.796;2023-02-04T01:54:12;101109.81;;;4.94;69.86
62800;BME280;48842;51.046;13.796;2023-02-04T01:56:40;101117.63;;;4.94;70.08
62800;BME280;48842;51.046;13.796;2023-02-04T01:59:14;101124.47;;;4.92;69.33
62800;BME280;48842;51.046;13.796;2023-02-04T02:01:48;101135.84;;;4.96;69.31
62800;BME280;48842;51.046;13.796;2023-02-04T02:04:19;101123.56;;;4.92;68.85
62800;BME280;48842;51.046;13.796;2023-02-04T02:06:50;101137.00;;;4.81;68.04
62800;BME280;48842;51.046;13.796;2023-02-04T02:09:16;101138.50;;;4.97;68.31
62800;BME280;48842;51.046;13.796;2023-02-04T02:11:42;101142.53;;;4.90;67.61
62800;BME280;48842;51.046;13.796;2023-02-04T02:14:07;101156.31;;;4.88;66.56
62800;BME280;48842;51.046;13.796;2023-02-04T02:16:32;101159.22;;;4.96;67.01
62800;BME280;48842;51.046;13.796;2023-02-04T02:18:58;101159.31;;;4.99;66.76
62800;BME280;48842;51.046;13.796;2023-02-04T02:21:31;101183.31;;;4.93;66.00
62800;BME280;48842;51.046;13.796;2023-02-04T02:23:58;101190.81;;;4.85;64.84
62800;BME280;48842;51.046;13.796;2023-02-04T02:26:25;101197.16;;;4.92;64.61
62800;BME280;48842;51.046;13.796;2023-02-04T02:28:51;101211.75;;;4.90;64.50
62800;BME280;48842;51.046;13.796;2023-02-04T02:31:19;101217.06;;;4.93;64.02
62800;BME280;48842;51.046;13.796;2023-02-04T02:33:45;101232.72;;;4.95;63.65
62800;BME280;48842;51.046;13.796;2023-02-04T02:36:10;101233.63;;;4.95;63.83
62800;BME280;48842;51.046;13.796;2023-02-04T02:38:36;101247.59;;;4.99;64.32
62800;BME280;48842;51.046;13.796;2023-02-04T02:41:02;101263.56;;;4.87;63.82
62800;BME280;48842;51.046;13.796;2023-02-04T02:43:28;101252.59;;;4.94;64.27
62800;BME280;48842;51.046;13.796;2023-02-04T02:45:55;101277.75;;;4.95;64.22
62800;BME280;48842;51.046;13.796;2023-02-04T02:48:22;101274.31;;;4.96;64.11
62800;BME280;48842;51.046;13.796;2023-02-04T02:50:48;101278.50;;;4.93;63.77
62800;BME280;48842;51.046;13.796;2023-02-04T02:53:18;101284.00;;;5.00;63.99
62800;BME280;48842;51.046;13.796;2023-02-04T02:55:43;101293.53;;;5.00;63.72
62800;BME280;48842;51.046;13.796;2023-02-04T02:58:21;101293.53;;;5.00;63.66
62800;BME280;48842;51.046;13.796;2023-02-04T03:00:47;101307.31;;;4.99;63.29
62800;BME280;48842;51.046;13.796;2023-02-04T03:03:16;101307.00;;;4.91;63.01
62800;BME280;48842;51.046;13.796;2023-02-04T03:05:46;101321.59;;;4.89;62.51
62800;BME280;48842;51.046;13.796;2023-02-04T03:08:14;101325.03;;;4.88;62.94
62800;BME280;48842;51.046;13.796;2023-02-04T03:10:41;101341.56;;;4.90;62.30
62800;BME280;48842;51.046;13.796;2023-02-04T03:13:07;101352.19;;;4.96;62.92
62800;BME280;48842;51.046;13.796;2023-02-04T03:15:33;101354.78;;;4.96;62.28
62800;BME280;48842;51.046;13.796;2023-02-04T03:17:59;101359.09;;;4.96;62.09
62800;BME280;48842;51.046;13.796;2023-02-04T03:20:26;101366.63;;;4.89;62.09
62800;BME280;48842;51.046;13.796;2023-02-04T03:22:53;101381.53;;;4.94;61.83
62800;BME280;48842;51.046;13.796;2023-02-04T03:25:19;101378.16;;;4.96;62.19
62800;BME280;48842;51.046;13.796;2023-02-04T03:27:45;101392.66;;;4.91;61.54
62800;BME280;48842;51.046;13.796;2023-02-04T03:30:10;101402.38;;;4.95;62.16
62800;BME280;48842;51.046;13.796;2023-02-04T03:32:35;101412.44;;;4.89;61.22
62800;BME280;48842;51.046;13.796;2023-02-04T03:35:01;101413.00;;;4.82;61.57
62800;BME280;48842;51.046;13.796;2023-02-04T03:37:26;101418.34;;;4.85;61.48
62800;BME280;48842;51.046;13.796;2023-02-04T03:39:51;101437.59;;;4.90;62.09
62800;BME280;48842;51.046;13.796;2023-02-04T03:42:16;101465.22;;;4.88;61.81
62800;BME280;48842;51.046;13.796;2023-02-04T03:44:42;101470.53;;;4.91;62.52
62800;BME280;48842;51.046;13.796;2023-02-04T03:47:12;101484.19;;;4.87;62.68
62800;BME280;48842;51.046;13.796;2023-02-04T03:49:38;101488.13;;;4.79;63.04
62800;BME280;48842;51.046;13.796;2023-02-04T03:52:03;101492.09;;;4.70;63.50
62800;BME280;48842;51.046;13.796;2023-02-04T03:54:29;101508.88;;;4.59;63.78
62800;BME280;48842;51.046;13.796;2023-02-04T03:56:54;101519.97;;;4.57;64.22
62800;BME280;48842;51.046;13.796;2023-02-04T03:59:19;101526.09;;;4.57;64.24
62800;BME280;48842;51.046;13.796;2023-02-04T04:01:44;101530.53;;;4.42;63.56
62800;BME280;48842;51.046;13.796;2023-02-04T04:04:10;101539.69;;;4.35;63.66
62800;BME280;48842;51.046;13.796;2023-02-04T04:06:35;101558.47;;;4.29;63.46
62800;BME280;48842;51.046;13.796;2023-02-04T04:09:00;101562.59;;;4.26;63.36
62800;BME280;48842;51.046;13.796;2023-02-04T04:11:26;101572.91;;;4.24;63.55
62800;BME280;48842;51.046;13.796;2023-02-04T04:13:51;101576.13;;;4.20;63.68
62800;BME280;48842;51.046;13.796;2023-02-04T04:16:16;101590.59;;;4.15;63.71
62800;BME280;48842;51.046;13.796;2023-02-04T04:18:41;101596.50;;;4.12;63.69
62800;BME280;48842;51.046;13.796;2023-02-04T04:21:07;101604.28;;;4.12;63.34
62800;BME280;48842;51.046;13.796;2023-02-04T04:23:32;101617.31;;;4.14;63.38
62800;BME280;48842;51.046;13.796;2023-02-04T04:25:57;101621.94;;;4.19;62.91
62800;BME280;48842;51.046;13.796;2023-02-04T04:28:23;101635.13;;;4.24;62.47
62800;BME280;48842;51.046;13.796;2023-02-04T04:30:48;101634.41;;;4.27;61.56
62800;BME280;48842;51.046;13.796;2023-02-04T04:33:13;101631.88;;;4.28;61.49
62800;BME280;48842;51.046;13.796;2023-02-04T04:35:38;101637.22;;;4.31;61.75
62800;BME280;48842;51.046;13.796;2023-02-04T04:38:04;101642.56;;;4.34;61.02
62800;BME280;48842;51.046;13.796;2023-02-04T04:40:29;101658.28;;;4.37;60.92
62800;BME280;48842;51.046;13.796;2023-02-04T04:42:54;101662.75;;;4.40;61.13
62800;BME280;48842;51.046;13.796;2023-02-04T04:45:20;101667.94;;;4.40;60.40
62800;BME280;48842;51.046;13.796;2023-02-04T04:47:45;101675.78;;;4.42;60.72
62800;BME280;48842;51.046;13.796;2023-02-04T04:50:10;101679.84;;;4.36;59.39
62800;BME280;48842;51.046;13.796;2023-02-04T04:52:36;101684.06;;;4.34;59.82
62800;BME280;48842;51.046;13.796;2023-02-04T04:55:01;101693.56;;;4.34;59.54
62800;BME280;48842;51.046;13.796;2023-02-04T04:57:27;101704.81;;;4.34;59.54
62800;BME280;48842;51.046;13.796;2023-02-04T04:59:52;101713.75;;;4.40;59.68
62800;BME280;48842;51.046;13.796;2023-02-04T05:02:17;101713.25;;;4.47;60.12
62800;BME280;48842;51.046;13.796;2023-02-04T05:04:42;101724.00;;;4.54;60.73
62800;BME280;48842;51.046;13.796;2023-02-04T05:07:08;101730.00;;;4.53;59.35
62800;BME280;48842;51.046;13.796;2023-02-04T05:09:33;101729.19;;;4.54;60.26
62800;BME280;48842;51.046;13.796;2023-02-04T05:11:58;101732.75;;;4.57;60.29
62800;BME280;48842;51.046;13.796;2023-02-04T05:14:23;101739.41;;;4.51;59.60
62800;BME280;48842;51.046;13.796;2023-02-04T05:16:49;101744.75;;;4.54;60.02
62800;BME280;48842;51.046;13.796;2023-02-04T05:19:14;101742.25;;;4.56;60.46
62800;BME280;48842;51.046;13.796;2023-02-04T05:21:39;101746.63;;;4.57;60.28
62800;BME280;48842;51.046;13.796;2023-02-04T05:24:04;101745.78;;;4.58;60.80
62800;BME280;48842;51.046;13.796;2023-02-04T05:26:31;101745.41;;;4.50;60.98
62800;BME280;48842;51.046;13.796;2023-02-04T05:28:56;101750.53;;;4.49;61.22
62800;BME280;48842;51.046;13.796;2023-02-04T05:31:21;101753.13;;;4.49;61.85
62800;BME280;48842;51.046;13.796;2023-02-04T05:33:46;101757.34;;;4.47;61.90
62800;BME280;48842;51.046;13.796;2023-02-04T05:36:11;101766.81;;;4.46;62.04
62800;BME280;48842;51.046;13.796;2023-02-04T05:38:37;101783.84;;;4.41;62.44
62800;BME280;48842;51.046;13.796;2023-02-04T05:41:02;101787.50;;;4.45;62.78
62800;BME280;48842;51.046;13.796;2023-02-04T05:43:27;101784.09;;;4.46;62.99
62800;BME280;48842;51.046;13.796;2023-02-04T05:45:52;101794.06;;;4.38;62.62
62800;BME280;48842;51.046;13.796;2023-02-04T05:48:18;101801.28;;;4.27;62.92
62800;BME280;48842;51.046;13.796;2023-02-04T05:50:43;101805.50;;;4.25;62.87
62800;BME280;48842;51.046;13.796;2023-02-04T05:53:08;101813.75;;;4.18;63.54
62800;BME280;48842;51.046;13.796;2023-02-04T05:55:34;101826.47;;;4.13;62.97
62800;BME280;48842;51.046;13.796;2023-02-04T05:57:59;101822.00;;;4.11;63.54
62800;BME280;48842;51.046;13.796;2023-02-04T06:00:24;101827.16;;;3.94;63.27
62800;BME280;48842;51.046;13.796;2023-02-04T06:02:49;101836.50;;;3.76;63.20
62800;BME280;48842;51.046;13.796;2023-02-04T06:05:15;101841.84;;;3.79;63.40
62800;BME280;48842;51.046;13.796;2023-02-04T06:07:40;101847.50;;;3.72;63.60
62800;BME280;48842;51.046;13.796;2023-02-04T06:10:05;101866.09;;;3.64;64.13
62800;BME280;48842;51.046;13.796;2023-02-04T06:12:31;101877.69;;;3.56;63.78
62800;BME280;48842;51.046;13.796;2023-02-04T06:14:56;101875.13;;;3.56;63.84
62800;BME280;48842;51.046;13.796;2023-02-04T06:17:21;101884.78;;;3.59;64.35
62800;BME280;48842;51.046;13.796;2023-02-04T06:19:46;101889.41;;;3.64;64.26
62800;BME280;48842;51.046;13.796;2023-02-04T06:22:11;101895.59;;;3.66;63.60
62800;BME280;48842;51.046;13.796;2023-02-04T06:24:37;101913.72;;;3.66;64.05
62800;BME280;48842;51.046;13.796;2023-02-04T06:27:02;101901.56;;;3.65;64.04
62800;BME280;48842;51.046;13.796;2023-02-04T06:29:28;101913.53;;;3.63;64.14
62800;BME280;48842;51.046;13.796;2023-02-04T06:31:53;101922.13;;;3.62;64.27
62800;BME280;48842;51.046;13.796;2023-02-04T06:34:18;101925.25;;;3.57;64.31
62800;BME280;48842;51.046;13.796;2023-02-04T06:36:43;101937.13;;;3.53;64.68
62800;BME280;48842;51.046;13.796;2023-02-04T06:39:09;101939.53;;;3.50;64.75
62800;BME280;48842;51.046;13.796;2023-02-04T06:41:34;101951.59;;;3.49;64.42
62800;BME280;48842;51.046;13.796;2023-02-04T06:43:59;101950.41;;;3.44;64.64
62800;BME280;48842;51.046;13.796;2023-02-04T06:46:24;101956.25;;;3.40;64.09
62800;BME280;48842;51.046;13.796;2023-02-04T06:48:49;101958.53;;;3.36;64.74
62800;BME280;48842;51.046;13.796;2023-02-04T06:51:15;101973.19;;;3.35;64.54
62800;BME280;48842;51.046;13.796;2023-02-04T06:53:40;101974.31;;;3.25;64.63
62800;BME280;48842;51.046;13.796;2023-02-04T06:56:08;101976.91;;;3.25;64.70
62800;BME280;48842;51.046;13.796;2023-02-04T06:58:33;101989.25;;;3.29;64.61
62800;BME280;48842;51.046;13.796;2023-02-04T07:00:58;101996.41;;;3.34;65.05
62800;BME280;48842;51.046;13.796;2023-02-04T07:03:23;102004.44;;;3.38;64.57
62800;BME280;48842;51.046;13.796;2023-02-04T07:05:49;102001.78;;;3.37;64.80
62800;BME280;48842;51.046;13.796;2023-02-04T07:08:16;102016.44;;;3.36;65.00
62800;BME280;48842;51.046;13.796;2023-02-04T07:10:41;102019.91;;;3.37;64.78
62800;BME280;48842;51.046;13.796;2023-02-04T07:13:06;102032.84;;;3.37;64.88
62800;BME280;48842;51.046;13.796;2023-02-04T07:15:31;102029.19;;;3.33;64.49
62800;BME280;48842;51.046;13.796;2023-02-04T07:17:57;102036.13;;;3.34;64.85
62800;BME280;48842;51.046;13.796;2023-02-04T07:20:22;102036.88;;;3.31;64.83
62800;BME280;48842;51.046;13.796;2023-02-04T07:22:47;102031.78;;;3.33;64.59
62800;BME280;48842;51.046;13.796;2023-02-04T07:25:12;102037.16;;;3.36;64.18
62800;BME280;48842;51.046;13.796;2023-02-04T07:27:40;102043.81;;;3.32;64.79
62800;BME280;48842;51.046;13.796;2023-02-04T07:30:05;102035.94;;;3.31;65.18
62800;BME280;48842;51.046;13.796;2023-02-04T07:32:31;102034.97;;;3.29;65.17
62800;BME280;48842;51.046;13.796;2023-02-04T07:34:58;102040.16;;;3.29;65.19
62800;BME280;48842;51.046;13.796;2023-02-04T07:37:23;102033.38;;;3.31;64.86
62800;BME280;48842;51.046;13.796;2023-02-04T07:39:49;102038.03;;;3.37;64.57
62800;BME280;48842;51.046;13.796;2023-02-04T07:42:14;102033.81;;;3.39;64.36
62800;BME280;48842;51.046;13.796;2023-02-04T07:44:39;102045.28;;;3.42;64.33
62800;BME280;48842;51.046;13.796;2023-02-04T07:47:04;102051.44;;;3.44;64.72
62800;BME280;48842;51.046;13.796;2023-02-04T07:49:30;102054.34;;;3.49;64.87
62800;BME280;48842;51.046;13.796;2023-02-04T07:51:55;102051.28;;;3.56;64.86
62800;BME280;48842;51.046;13.796;2023-02-04T07:54:22;102068.00;;;3.61;65.10
62800;BME280;48842;51.046;13.796;2023-02-04T07:56:47;102067.84;;;3.73;64.75
62800;BME280;48842;51.046;13.796;2023-02-04T07:59:12;102075.47;;;3.85;64.20
62800;BME280;48842;51.046;13.796;2023-02-04T08:01:38;102083.69;;;3.93;64.10
62800;BME280;48842;51.046;13.796;2023-02-04T08:04:03;102087.47;;;3.98;64.65
62800;BME280;48842;51.046;13.796;2023-02-04T08:06:28;102091.13;;;4.01;63.85
62800;BME280;48842;51.046;13.796;2023-02-04T08:08:53;102093.53;;;3.98;64.06
62800;BME280;48842;51.046;13.796;2023-02-04T08:11:19;102097.13;;;4.00;64.41
62800;BME280;48842;51.046;13.796;2023-02-04T08:13:44;102106.06;;;4.06;64.25
62800;BME280;48842;51.046;13.796;2023-02-04T08:16:09;102111.50;;;4.10;63.94
62800;BME280;48842;51.046;13.796;2023-02-04T08:18:34;102111.81;;;4.15;64.01
62800;BME280;48842;51.046;13.796;2023-02-04T08:21:00;102122.44;;;4.19;63.94
62800;BME280;48842;51.046;13.796;2023-02-04T08:23:26;102115.56;;;4.20;63.93
62800;BME280;48842;51.046;13.796;2023-02-04T08:25:51;102118.94;;;4.19;63.73
62800;BME280;48842;51.046;13.796;2023-02-04T08:28:16;102129.44;;;4.21;64.04
62800;BME280;48842;51.046;13.796;2023-02-04T08:30:42;102137.00;;;4.17;63.54
62800;BME280;48842;51.046;13.796;2023-02-04T08:33:07;102142.09;;;4.16;64.26
62800;BME280;48842;51.046;13.796;2023-02-04T08:35:32;102147.28;;;4.16;64.28
62800;BME280;48842;51.046;13.796;2023-02-04T08:37:57;102153.84;;;4.24;64.68
62800;BME280;48842;51.046;13.796;2023-02-04T08:40:23;102152.59;;;4.32;63.89
62800;BME280;48842;51.046;13.796;2023-02-04T08:42:48;102159.94;;;4.40;64.10
62800;BME280;48842;51.046;13.796;2023-02-04T08:45:13;102156.53;;;4.41;63.91
62800;BME280;48842;51.046;13.796;2023-02-04T08:47:39;102165.66;;;4.49;63.77
62800;BME280;48842;51.046;13.796;2023-02-04T08:50:04;102173.00;;;4.56;63.37
62800;BME280;48842;51.046;13.796;2023-02-04T08:52:30;102164.88;;;4.65;63.60
62800;BME280;48842;51.046;13.796;2023-02-04T08:54:55;102163.25;;;4.67;62.70
62800;BME280;48842;51.046;13.796;2023-02-04T08:57:20;102181.03;;;4.76;63.02
62800;BME280;48842;51.046;13.796;2023-02-04T08:59:45;102188.22;;;4.80;62.42
62800;BME280;48842;51.046;13.796;2023-02-04T09:02:11;102177.81;;;4.80;62.10
62800;BME280;48842;51.046;13.796;2023-02-04T09:04:36;102183.34;;;4.86;62.43
62800;BME280;48842;51.046;13.796;2023-02-04T09:07:02;102189.56;;;4.88;62.14
62800;BME280;48842;51.046;13.796;2023-02-04T09:09:27;102190.34;;;4.87;61.76
62800;BME280;48842;51.046;13.796;2023-02-04T09:11:53;102196.81;;;4.94;62.00
62800;BME280;48842;51.046;13.796;2023-02-04T09:14:18;102195.44;;;5.00;62.00
62800;BME280;48842;51.046;13.796;2023-02-04T09:16:43;102200.63;;;5.00;61.92
62800;BME280;48842;51.046;13.796;2023-02-04T09:19:08;102204.41;;;5.05;62.01
62800;BME280;48842;51.046;13.796;2023-02-04T09:21:36;102212.34;;;5.09;61.86
62800;BME280;48842;51.046;13.796;2023-02-04T09:24:01;102206.53;;;5.13;61.75
62800;BME280;48842;51.046;13.796;2023-02-04T09:26:27;102211.81;;;5.14;61.38
62800;BME280;48842;51.046;13.796;2023-02-04T09:28:52;102205.16;;;5.19;61.29
62800;BME280;48842;51.046;13.796;2023-02-04T09:31:17;102218.50;;;5.25;61.39
62800;BME280;48842;51.046;13.796;2023-02-04T09:33:42;102219.56;;;5.29;61.34
62800;BME280;48842;51.046;13.796;2023-02-04T09:36:08;102227.88;;;5.38;61.32
62800;BME280;48842;51.046;13.796;2023-02-04T09:38:33;102233.78;;;5.51;61.49
62800;BME280;48842;51.046;13.796;2023-02-04T09:41:01;102227.72;;;5.67;61.62
62800;BME280;48842;51.046;13.796;2023-02-04T09:43:33;102229.44;;;5.83;61.07
62800;BME280;48842;51.046;13.796;2023-02-04T09:46:01;102230.72;;;5.91;60.79
62800;BME280;48842;51.046;13.796;2023-02-04T09:48:26;102236.19;;;5.95;60.69
62800;BME280;48842;51.046;13.796;2023-02-04T09:50:52;102238.69;;;5.94;60.30
62800;BME280;48842;51.046;13.796;2023-02-04T09:53:22;102236.84;;;5.91;60.12
62800;BME280;48842;51.046;13.796;2023-02-04T09:55:49;102247.41;;;5.94;60.12
62800;BME280;48842;51.046;13.796;2023-02-04T09:58:18;102246.50;;;5.94;59.84
62800;BME280;48842;51.046;13.796;2023-02-04T10:00:45;102252.47;;;5.91;59.25
62800;BME280;48842;51.046;13.796;2023-02-04T10:03:15;102256.09;;;5.95;59.74
62800;BME280;48842;51.046;13.796;2023-02-04T10:05:43;102260.19;;;5.90;58.55
62800;BME280;48842;51.046;13.796;2023-02-04T10:08:14;102270.59;;;5.90;58.53
62800;BME280;48842;51.046;13.796;2023-02-04T10:10:40;102267.88;;;5.88;58.63
62800;BME280;48842;51.046;13.796;2023-02-04T10:13:15;102270.06;;;5.81;58.54
62800;BME280;48842;51.046;13.796;2023-02-04T10:15:41;102276.41;;;5.86;59.01
62800;BME280;48842;51.046;13.796;2023-02-04T10:18:07;102273.25;;;5.91;58.58
62800;BME280;48842;51.046;13.796;2023-02-04T10:20:33;102279.03;;;5.86;58.52
62800;BME280;48842;51.046;13.796;2023-02-04T10:22:58;102278.28;;;5.88;58.94
62800;BME280;48842;51.046;13.796;2023-02-04T10:25:24;102277.38;;;5.88;58.59
62800;BME280;48842;51.046;13.796;2023-02-04T10:27:58;102276.59;;;5.89;58.42
62800;BME280;48842;51.046;13.796;2023-02-04T10:30:29;102277.38;;;5.88;58.80
62800;BME280;48842;51.046;13.796;2023-02-04T10:32:58;102279.81;;;5.85;58.47
62800;BME280;48842;51.046;13.796;2023-02-04T10:35:24;102279.97;;;5.88;58.76
62800;BME280;48842;51.046;13.796;2023-02-04T10:38:05;102276.91;;;5.95;58.80
62800;BME280;48842;51.046;13.796;2023-02-04T10:40:33;102273.69;;;5.99;58.64
62800;BME280;48842;51.046;13.796;2023-02-04T10:42:59;102279.41;;;6.08;58.36
62800;BME280;48842;51.046;13.796;2023-02-04T10:45:31;102276.06;;;6.11;58.52
62800;BME280;48842;51.046;13.796;2023-02-04T10:47:56;102269.97;;;6.10;58.00
62800;BME280;48842;51.046;13.796;2023-02-04T10:50:24;102283.63;;;6.06;57.81
62800;BME280;48842;51.046;13.796;2023-02-04T10:52:54;102289.91;;;5.95;56.45
62800;BME280;48842;51.046;13.796;2023-02-04T10:55:40;102289.06;;;5.80;56.20
62800;BME280;48842;51.046;13.796;2023-02-04T10:58:09;102292.41;;;5.77;56.74
62800;BME280;48842;51.046;13.796;2023-02-04T11:00:35;102294.25;;;5.80;56.51
62800;BME280;48842;51.046;13.796;2023-02-04T11:03:14;102292.81;;;5.85;56.78
62800;BME280;48842;51.046;13.796;2023-02-04T11:05:40;102282.59;;;5.88;56.72
62800;BME280;48842;51.046;13.796;2023-02-04T11:08:24;102286.00;;;5.87;57.09
62800;BME280;48842;51.046;13.796;2023-02-04T11:11:04;102275.94;;;5.93;57.40
62800;BME280;48842;51.046;13.796;2023-02-04T11:26:34;102292.19;;;6.53;55.99
62800;BME280;48842;51.046;13.796;2023-02-04T11:31:26;102289.97;;;6.44;55.21
62800;BME280;48842;51.046;13.796;2023-02-04T11:39:40;102293.63;;;6.32;54.95
62800;BME280;48842;51.046;13.796;2023-02-04T11:42:18;102296.88;;;6.27;54.85
62800;BME280;48842;51.046;13.796;2023-02-04T11:45:05;102297.81;;;6.28;54.30
62800;BME280;48842;51.046;13.796;2023-02-04T11:47:34;102298.34;;;6.39;54.82
62800;BME280;48842;51.046;13.796;2023-02-04T11:52:36;102292.72;;;6.64;53.04
62800;BME280;48842;51.046;13.796;2023-02-04T11:55:01;102297.75;;;6.77;52.94
62800;BME280;48842;51.046;13.796;2023-02-04T11:57:27;102307.00;;;6.89;52.79
62800;BME280;48842;51.046;13.796;2023-02-04T11:59:53;102299.84;;;6.85;52.06
62800;BME280;48842;51.046;13.796;2023-02-04T12:02:23;102318.56;;;6.77;52.24
62800;BME280;48842;51.046;13.796;2023-02-04T12:05:11;102309.38;;;6.84;52.71
62800;BME280;48842;51.046;13.796;2023-02-04T12:07:37;102307.66;;;6.85;52.87
62800;BME280;48842;51.046;13.796;2023-02-04T12:12:54;102313.06;;;6.71;52.56
62800;BME280;48842;51.046;13.796;2023-02-04T12:15:24;102317.97;;;6.65;52.87
62800;BME280;48842;51.046;13.796;2023-02-04T12:18:03;102317.13;;;6.50;52.00
62800;BME280;48842;51.046;13.796;2023-02-04T12:20:29;102315.03;;;6.59;53.02
62800;BME280;48842;51.046;13.796;2023-02-04T12:22:55;102318.28;;;6.71;53.13
62800;BME280;48842;51.046;13.796;2023-02-04T12:25:21;102324.47;;;6.57;52.29
62800;BME280;48842;51.046;13.796;2023-02-04T12:27:46;102329.34;;;6.51;52.45
62800;BME280;48842;51.046;13.796;2023-02-04T12:30:12;102331.28;;;6.22;52.18
62800;BME280;48842;51.046;13.796;2023-02-04T12:32:37;102321.03;;;6.08;53.13
62800;BME280;48842;51.046;13.796;2023-02-04T12:35:03;102321.31;;;5.98;53.75
62800;BME280;48842;51.046;13.796;2023-02-04T12:37:28;102321.03;;;5.93;54.14
62800;BME280;48842;51.046;13.796;2023-02-04T12:39:54;102317.72;;;5.96;53.88
62800;BME280;48842;51.046;13.796;2023-02-04T12:42:19;102325.00;;;6.02;53.96
62800;BME280;48842;51.046;13.796;2023-02-04T12:44:44;102318.66;;;6.13;54.10
62800;BME280;48842;51.046;13.796;2023-02-04T12:47:09;102318.28;;;6.22;54.11
62800;BME280;48842;51.046;13.796;2023-02-04T12:49:35;102326.75;;;6.18;52.87
62800;BME280;48842;51.046;13.796;2023-02-04T12:52:02;102327.72;;;6.20;52.89
62800;BME280;48842;51.046;13.796;2023-02-04T12:54:28;102322.66;;;6.23;52.81
62800;BME280;48842;51.046;13.796;2023-02-04T12:56:53;102310.97;;;6.31;52.09
62800;BME280;48842;51.046;13.796;2023-02-04T12:59:22;102321.72;;;6.37;51.13
62800;BME280;48842;51.046;13.796;2023-02-04T13:01:48;102319.19;;;6.39;48.23
62800;BME280;48842;51.046;13.796;2023-02-04T13:04:13;102329.66;;;6.57;47.63
62800;BME280;48842;51.046;13.796;2023-02-04T13:06:39;102318.69;;;6.62;46.26
62800;BME280;48842;51.046;13.796;2023-02-04T13:09:04;102328.94;;;6.59;46.13
62800;BME280;48842;51.046;13.796;2023-02-04T13:11:29;102336.19;;;6.65;47.61